Time;durP1;ratioP1;P1;durP2;ratioP2;P2;SDS_P1;SDS_P2;PMS_P1;PMS_P2;Temp;Humidity;BMP_temperature;BMP_pressure;BME280_temperature;BME280_humidity;BME280_pressure;Samples;Min_cycle;Max_cycle;Signal;HPM_P1;HPM_P2
2023/09/14 00:01:26;;;;;;;3.20;2.90;;;;;;;17.92;75.86;100205.72;133793;1301;22300;-78
2023/09/14 00:04:30;;;;;;;2.90;2.60;;;;;;;17.91;76.03;100210.63;133821;1308;22401;-79
2023/09/14 00:07:32;;;;;;;2.70;2.50;;;;;;;17.94;76.20;100205.05;133803;1304;22447;-79
2023/09/14 00:10:32;;;;;;;5.20;3.00;;;;;;;17.96;76.32;100206.61;133775;1301;22424;-79
2023/09/14 00:13:32;;;;;;;;;;;;;;;17.96;76.60;100204.30;133834;1305;22472;-79
2023/09/14 00:16:33;;;;;;;3.50;3.20;;;;;;;17.93;76.73;100206.99;133817;1305;22421;-77
2023/09/14 00:19:38;;;;;;;3.00;2.60;;;;;;;17.94;76.82;100210.51;133822;1308;22505;-79
2023/09/14 00:22:39;;;;;;;3.10;2.50;;;;;;;17.94;76.94;100202.29;133813;1308;22193;-79
2023/09/14 00:25:39;;;;;;;;;;;;;;;17.94;77.00;100199.98;133842;1301;22540;-79
2023/09/14 00:28:39;;;;;;;3.30;3.00;;;;;;;17.91;77.21;100203.37;133787;1301;23963;-79
2023/09/14 00:31:42;;;;;;;2.90;2.70;;;;;;;17.89;77.33;100203.56;133719;1302;22464;-80
2023/09/14 00:34:43;;;;;;;2.80;2.50;;;;;;;17.88;77.40;100200.28;133866;1302;22230;-79
2023/09/14 00:37:46;;;;;;;3.00;2.70;;;;;;;17.88;77.49;100199.42;133851;1308;22380;-79
2023/09/14 00:40:48;;;;;;;3.30;3.00;;;;;;;17.88;77.57;100204.29;133833;1305;22365;-79
2023/09/14 00:43:48;;;;;;;3.20;2.80;;;;;;;17.86;77.58;100203.96;133743;1308;23027;-79
2023/09/14 00:46:49;;;;;;;;;;;;;;;17.84;77.67;100205.11;133811;1308;22526;-79
2023/09/14 00:49:49;;;;;;;;;;;;;;;17.82;77.72;100205.67;133830;1307;22466;-79
2023/09/14 00:52:56;;;;;;;4.40;2.70;;;;;;;17.78;77.83;100207.58;133826;1308;22611;-80
2023/09/14 00:55:57;;;;;;;3.40;2.70;;;;;;;17.76;77.87;100212.90;133832;1304;22214;-79
2023/09/14 00:59:02;;;;;;;4.30;3.30;;;;;;;17.73;77.92;100217.64;133831;1302;22459;-79
2023/09/14 01:02:05;;;;;;;3.80;3.20;;;;;;;17.71;78.09;100222.85;133836;1308;22235;-79
2023/09/14 01:05:06;;;;;;;;;;;;;;;17.71;78.19;100221.08;133803;1305;22539;-79
2023/09/14 01:08:07;;;;;;;4.00;3.40;;;;;;;17.67;78.18;100221.77;133811;1305;22189;-79
2023/09/14 01:11:10;;;;;;;3.50;3.20;;;;;;;17.64;78.41;100225.05;133691;1302;22271;-79
2023/09/14 01:14:22;;;;;;;4.50;3.80;;;;;;;17.59;78.44;100228.13;133798;1304;23201;-79
2023/09/14 01:17:31;;;;;;;3.90;3.50;;;;;;;17.54;78.73;100229.94;133794;1307;22504;-79
2023/09/14 01:20:42;;;;;;;5.20;3.50;;;;;;;17.50;78.81;100236.48;133725;1304;22402;-79
2023/09/14 01:24:09;;;;;;;3.80;3.50;;;;;;;17.47;78.90;100233.64;133687;1308;22376;-79
2023/09/14 01:27:10;;;;;;;4.80;3.70;;;;;;;17.46;78.99;100234.71;133726;1304;22946;-79
2023/09/14 01:30:11;;;;;;;4.50;3.50;;;;;;;17.44;79.21;100231.04;133818;1301;22375;-79
2023/09/14 01:33:13;;;;;;;;;;;;;;;17.44;79.34;100231.37;133835;1304;22478;-79
2023/09/14 01:36:28;;;;;;;4.20;3.70;;;;;;;17.43;79.49;100235.86;133798;1307;22335;-79
2023/09/14 01:39:31;;;;;;;4.50;3.90;;;;;;;17.41;79.51;100237.85;133710;1302;22353;-79
2023/09/14 01:42:32;;;;;;;5.00;4.40;;;;;;;17.41;79.64;100238.18;133835;1307;22372;-79
2023/09/14 01:45:36;;;;;;;4.70;3.50;;;;;;;17.42;79.68;100238.84;133691;1302;22552;-79
2023/09/14 01:48:36;;;;;;;3.90;3.40;;;;;;;17.40;79.50;100243.59;133765;1301;23165;-79
2023/09/14 01:51:37;;;;;;;;;;;;;;;17.36;79.46;100248.34;133817;1302;23426;-79
2023/09/14 01:54:40;;;;;;;5.10;3.60;;;;;;;17.32;79.55;100250.52;133725;1302;22139;-79
2023/09/14 01:57:41;;;;;;;5.70;4.00;;;;;;;17.31;79.60;100250.94;133745;1302;22989;-79
2023/09/14 02:00:41;;;;;;;;;;;;;;;17.29;79.67;100250.49;133771;1308;22591;-79
2023/09/14 02:03:42;;;;;;;4.20;3.80;;;;;;;17.24;79.66;100253.05;133701;1301;22440;-79
2023/09/14 02:06:42;;;;;;;;;;;;;;;17.20;79.81;100256.48;133788;1307;22469;-80
2023/09/14 02:09:43;;;;;;;4.30;3.90;;;;;;;17.12;79.81;100256.63;133839;1308;22395;-79
2023/09/14 02:12:48;;;;;;;5.50;5.00;;;;;;;17.07;80.14;100260.59;133808;1304;22267;-79
2023/09/14 02:15:49;;;;;;;5.20;4.70;;;;;;;17.03;80.40;100259.48;133672;1304;23069;-79
2023/09/14 02:18:50;;;;;;;8.60;7.70;;;;;;;16.99;81.22;100255.65;133676;1308;22349;-82
2023/09/14 02:21:50;;;;;;;8.60;7.70;;;;;;;16.97;81.79;100252.88;133707;1307;22357;-82
2023/09/14 02:24:51;;;;;;;;;;;;;;;16.97;81.89;100256.50;133774;1301;22673;-81
2023/09/14 02:27:51;;;;;;;8.20;7.20;;;;;;;16.97;82.14;100251.18;133780;1302;22436;-82
2023/09/14 02:30:52;;;;;;;;;;;;;;;17.00;82.10;100253.46;133841;1302;22422;-82
2023/09/14 02:33:52;;;;;;;8.60;7.70;;;;;;;17.00;82.49;100253.58;133685;1304;23239;-81
2023/09/14 02:36:54;;;;;;;8.10;7.30;;;;;;;16.98;82.46;100253.54;133688;1302;23137;-82
2023/09/14 02:39:54;;;;;;;8.90;7.60;;;;;;;16.97;82.61;100254.70;133760;1302;23325;-81
2023/09/14 02:42:55;;;;;;;9.60;8.20;;;;;;;16.98;82.75;100259.04;133730;1302;23187;-82
2023/09/14 02:45:58;;;;;;;9.60;8.10;;;;;;;17.00;82.79;100263.65;133703;1302;22199;-81
2023/09/14 02:48:59;;;;;;;;;;;;;;;17.01;82.96;100274.20;133703;1302;22457;-81
2023/09/14 02:51:59;;;;;;;;;;;;;;;17.02;83.13;100279.36;133808;1301;22477;-82
2023/09/14 02:55:00;;;;;;;9.20;7.10;;;;;;;17.03;83.31;100280.88;133702;1302;22462;-81
2023/09/14 02:58:02;;;;;;;9.10;8.20;;;;;;;17.04;83.34;100276.65;133712;1307;22431;-82
2023/09/14 03:01:08;;;;;;;9.60;8.60;;;;;;;17.07;83.40;100279.57;133828;1308;22407;-81
2023/09/14 03:04:10;;;;;;;8.70;7.90;;;;;;;17.11;83.57;100282.67;133784;1302;23057;-81
2023/09/14 03:07:10;;;;;;;9.60;8.60;;;;;;;17.14;83.58;100282.96;133703;1308;22359;-81
2023/09/14 03:10:11;;;;;;;9.50;8.50;;;;;;;17.14;83.56;100290.05;133701;1301;22260;-82
2023/09/14 03:13:14;;;;;;;9.70;8.70;;;;;;;17.13;83.72;100300.27;133700;1302;22446;-81
2023/09/14 03:16:15;;;;;;;;;;;;;;;17.12;83.93;100309.05;133815;1301;22462;-81
2023/09/14 03:19:15;;;;;;;9.90;8.80;;;;;;;17.09;84.05;100317.27;133698;1307;22507;-82
2023/09/14 03:22:16;;;;;;;;;;;;;;;17.09;84.07;100322.14;133543;1302;168722;-81
2023/09/14 03:25:19;;;;;;;11.50;9.90;;;;;;;17.08;84.22;100328.65;133812;1302;22949;-81
2023/09/14 03:28:19;;;;;;;10.50;9.50;;;;;;;17.06;84.50;100329.71;133814;1304;23512;-81
2023/09/14 03:31:25;;;;;;;11.20;10.00;;;;;;;17.03;84.49;100328.07;133714;1301;22444;-81
2023/09/14 03:34:26;;;;;;;10.60;9.50;;;;;;;17.02;84.62;100336.06;133800;1302;22362;-81
2023/09/14 03:37:26;;;;;;;12.00;9.90;;;;;;;17.01;84.60;100340.81;133714;1305;23230;-81
2023/09/14 03:40:29;;;;;;;11.00;9.90;;;;;;;17.03;84.71;100342.02;133838;1307;22484;-81
2023/09/14 03:43:30;;;;;;;10.30;9.20;;;;;;;17.02;84.92;100342.14;133728;1301;22453;-81
2023/09/14 03:46:30;;;;;;;;;;;;;;;17.00;84.90;100345.83;133840;1308;22481;-81
2023/09/14 03:49:31;;;;;;;10.50;9.50;;;;;;;16.98;84.90;100347.65;133737;1301;22362;-81
2023/09/14 03:52:31;;;;;;;;;;;;;;;17.00;84.95;100348.27;133837;1300;23180;-82
2023/09/14 03:55:32;;;;;;;13.20;9.50;;;;;;;17.03;85.01;100352.52;133707;1301;23191;-81
2023/09/14 03:58:35;;;;;;;10.80;9.50;;;;;;;17.05;84.95;100356.80;133817;1307;22359;-81
2023/09/14 04:01:36;;;;;;;10.80;9.80;;;;;;;17.08;84.95;100360.80;133856;1304;23555;-82
2023/09/14 04:04:40;;;;;;;;;;;;;;;17.08;84.75;100361.44;133831;1308;23208;-82
2023/09/14 04:07:42;;;;;;;10.50;9.50;;;;;;;17.09;84.99;100357.39;133833;1301;22538;-81
2023/09/14 04:10:43;;;;;;;10.50;9.30;;;;;;;17.11;84.87;100355.71;133703;1301;22469;-82
2023/09/14 04:13:44;;;;;;;11.50;9.30;;;;;;;17.12;84.88;100359.54;133853;1289;22511;-81
2023/09/14 04:16:46;;;;;;;;;;;;;;;17.15;84.81;100362.82;133834;1308;22459;-81
2023/09/14 04:19:47;;;;;;;10.60;8.60;;;;;;;17.16;84.90;100371.20;133838;1302;22364;-82
2023/09/14 04:22:50;;;;;;;13.30;9.80;;;;;;;17.20;85.04;100377.52;133794;1302;22550;-82
2023/09/14 04:25:51;;;;;;;11.30;10.20;;;;;;;17.21;84.95;100379.08;133804;1308;22426;-81
2023/09/14 04:28:52;;;;;;;12.00;10.50;;;;;;;17.23;84.80;100383.73;133662;1305;22454;-81
2023/09/14 04:31:56;;;;;;;11.60;10.50;;;;;;;17.22;84.67;100387.41;133731;1296;22406;-82
2023/09/14 04:34:57;;;;;;;10.90;9.80;;;;;;;17.22;84.76;100384.89;133812;1301;22591;-82
2023/09/14 04:37:58;;;;;;;11.50;10.30;;;;;;;17.23;84.74;100386.52;133719;1301;22385;-81
2023/09/14 04:41:02;;;;;;;11.00;9.90;;;;;;;17.27;84.71;100387.70;133753;1301;22541;-82
2023/09/14 04:44:06;;;;;;;12.10;9.70;;;;;;;17.29;84.73;100387.71;133825;1302;24354;-81
2023/09/14 04:47:07;;;;;;;10.60;9.60;;;;;;;17.29;84.75;100389.50;133716;1301;22309;-80
2023/09/14 04:50:11;;;;;;;10.60;9.50;;;;;;;17.31;84.73;100390.69;133839;1301;23233;-83
2023/09/14 04:53:11;;;;;;;10.80;9.70;;;;;;;17.32;84.69;100394.15;133836;1289;22683;-80
2023/09/14 04:56:12;;;;;;;;;;;;;;;17.33;84.66;100397.16;133825;1308;23267;-83
2023/09/14 04:59:14;;;;;;;11.80;10.20;;;;;;;17.34;84.72;100402.03;133705;1307;22479;-80
2023/09/14 05:02:16;;;;;;;12.00;10.00;;;;;;;17.35;84.70;100402.08;133719;1302;22248;-82
2023/09/14 05:05:17;;;;;;;10.90;9.90;;;;;;;17.37;84.67;100405.58;133693;1301;22200;-78
2023/09/14 05:08:18;;;;;;;12.80;10.20;;;;;;;17.40;84.80;100406.04;133712;1308;22237;-78
2023/09/14 05:11:22;;;;;;;10.70;9.70;;;;;;;17.48;85.01;100407.41;133844;1284;22207;-77
2023/09/14 05:14:22;;;;;;;12.80;10.10;;;;;;;17.54;84.73;100408.91;133854;1291;22348;-80
2023/09/14 05:17:27;;;;;;;11.10;10.00;;;;;;;17.61;84.80;100410.27;133799;1301;23138;-80
2023/09/14 05:20:30;;;;;;;10.70;9.60;;;;;;;17.70;84.88;100414.20;133737;1301;22504;-79
2023/09/14 05:23:31;;;;;;;11.60;9.70;;;;;;;17.78;84.70;100412.73;133822;1302;23289;-78
2023/09/14 05:26:35;;;;;;;11.10;9.70;;;;;;;17.80;84.66;100414.73;133777;1307;22457;-79
2023/09/14 05:29:35;;;;;;;10.80;9.40;;;;;;;17.81;84.74;100417.24;133849;1301;22234;-79
2023/09/14 05:32:43;;;;;;;11.40;9.60;;;;;;;17.81;84.61;100418.31;133665;1302;22352;-79
2023/09/14 05:35:44;;;;;;;11.10;10.00;;;;;;;17.82;84.58;100426.70;133742;1301;22393;-79
2023/09/14 05:38:46;;;;;;;10.60;9.00;;;;;;;17.80;84.60;100432.52;133674;1301;22483;-78
2023/09/14 05:41:48;;;;;;;9.70;8.70;;;;;;;17.79;84.58;100431.89;133799;1301;22373;-79
2023/09/14 05:44:51;;;;;;;13.20;11.20;;;;;;;17.74;84.54;100434.59;133806;1305;22478;-80
2023/09/14 05:48:12;;;;;;;11.60;10.60;;;;;;;17.65;84.37;100435.17;133859;1302;23662;-79
2023/09/14 05:51:13;;;;;;;13.10;11.80;;;;;;;17.53;84.40;100437.52;133838;1307;23168;-78
2023/09/14 05:54:14;;;;;;;11.90;10.60;;;;;;;17.40;84.60;100440.91;133797;1300;24031;-78
2023/09/14 05:57:18;;;;;;;13.10;11.10;;;;;;;17.31;84.94;100447.37;133811;1301;22286;-78
2023/09/14 06:00:19;;;;;;;14.00;10.40;;;;;;;17.20;85.35;100448.13;133835;1300;23373;-78
2023/09/14 06:03:23;;;;;;;11.70;10.50;;;;;;;17.09;85.57;100451.36;133841;1307;22468;-78
2023/09/14 06:06:24;;;;;;;12.30;11.10;;;;;;;17.01;85.76;100456.27;133819;1302;22393;-78
2023/09/14 06:09:26;;;;;;;12.80;10.80;;;;;;;16.96;85.92;100462.07;133840;1304;22355;-78
2023/09/14 06:12:30;;;;;;;11.10;9.90;;;;;;;16.96;86.11;100467.27;133827;1307;22355;-76
2023/09/14 06:15:31;;;;;;;11.80;8.60;;;;;;;16.97;86.31;100466.98;133824;1307;23242;-77
2023/09/14 06:18:32;;;;;;;10.10;9.10;;;;;;;16.96;86.24;100467.35;133802;1300;23347;-80
2023/09/14 06:21:34;;;;;;;11.20;8.80;;;;;;;16.96;86.25;100475.77;133787;1307;22299;-80
2023/09/14 06:24:35;;;;;;;10.30;8.20;;;;;;;16.95;86.51;100475.80;133825;1307;22381;-79
2023/09/14 06:27:44;;;;;;;8.50;7.70;;;;;;;16.90;86.24;100474.54;133805;1302;22481;-79
2023/09/14 06:30:50;;;;;;;7.70;7.00;;;;;;;16.85;86.08;100478.76;133796;1301;22381;-79
2023/09/14 06:33:55;;;;;;;7.80;6.40;;;;;;;16.84;86.10;100481.93;133845;1301;22470;-81
2023/09/14 06:36:56;;;;;;;;;;;;;;;16.84;85.94;100484.14;133846;1301;22545;-82
2023/09/14 06:39:57;;;;;;;9.00;6.10;;;;;;;16.83;85.83;100487.11;133806;1300;22493;-83
2023/09/14 06:43:01;;;;;;;5.70;5.20;;;;;;;16.83;85.51;100487.27;133804;1301;22395;-83
2023/09/14 06:46:19;;;;;;;5.50;5.00;;;;;;;16.82;85.28;100489.88;133829;1301;22450;-81
2023/09/14 06:49:19;;;;;;;6.30;5.00;;;;;;;16.85;85.16;100490.21;133722;1301;22207;-83
2023/09/14 06:52:20;;;;;;;;;;;;;;;16.92;85.20;100492.36;133777;1295;22492;-82
2023/09/14 06:55:26;;;;;;;6.40;5.20;;;;;;;16.99;85.19;100496.89;133820;1301;22434;-83
2023/09/14 06:58:27;;;;;;;5.90;4.60;;;;;;;17.06;84.78;100500.05;133797;1301;22237;-83
2023/09/14 07:01:33;;;;;;;6.70;4.50;;;;;;;17.08;84.71;100503.06;133717;1301;24392;-84
2023/09/14 07:04:37;;;;;;;5.40;4.30;;;;;;;17.16;84.54;100508.50;133595;1298;22429;-84
2023/09/14 07:08:29;;;;;;;6.40;4.40;;;;;;;17.22;84.64;100514.73;133644;1292;22459;-83
2023/09/14 07:11:33;;;;;;;6.00;4.60;;;;;;;17.27;84.08;100519.77;133497;1291;22852;-84
2023/09/14 07:14:37;;;;;;;7.00;3.80;;;;;;;17.26;83.42;100527.82;133487;1301;22393;-84
2023/09/14 07:17:38;;;;;;;5.50;3.60;;;;;;;17.24;83.44;100531.42;133622;1301;22399;-84
2023/09/14 07:20:41;;;;;;;4.70;3.90;;;;;;;17.28;83.46;100535.56;133648;1301;22186;-84
2023/09/14 07:23:44;;;;;;;5.60;4.40;;;;;;;17.34;83.46;100538.11;133639;1300;22642;-85
2023/09/14 07:26:47;;;;;;;4.70;4.30;;;;;;;17.39;83.50;100544.11;133597;1301;22382;-82
2023/09/14 07:29:50;;;;;;;7.00;4.20;;;;;;;17.40;83.56;100547.14;133627;1301;22475;-84
2023/09/14 07:32:54;;;;;;;4.70;4.20;;;;;;;17.39;83.43;100549.86;133594;1285;23281;-84
2023/09/14 07:35:57;;;;;;;6.50;4.10;;;;;;;17.35;83.30;100554.09;133593;1301;22399;-83
2023/09/14 07:38:59;;;;;;;7.00;3.40;;;;;;;17.36;83.47;100554.79;133589;1301;22242;-85
2023/09/14 07:41:59;;;;;;;5.90;3.70;;;;;;;17.42;83.09;100552.99;133657;1300;22340;-76
2023/09/14 07:45:06;;;;;;;6.70;3.60;;;;;;;17.45;82.78;100559.32;133685;1303;22384;-77
2023/09/14 07:48:07;;;;;;;3.60;3.20;;;;;;;17.47;82.04;100562.71;133656;1301;22517;-78
2023/09/14 07:51:08;;;;;;;7.20;3.50;;;;;;;17.52;81.87;100568.84;133467;1301;22395;-79
2023/09/14 07:54:08;;;;;;;;;;;;;;;17.63;81.47;100570.11;133682;1301;22447;-80
2023/09/14 07:57:09;;;;;;;6.20;3.30;;;;;;;17.70;81.09;100575.83;133659;1301;23107;-79
2023/09/14 08:00:09;;;;;;;;;;;;;;;17.77;80.71;100574.58;133663;1301;22454;-79
2023/09/14 08:03:14;;;;;;;6.80;3.90;;;;;;;17.88;80.34;100571.90;133709;1295;22432;-79
2023/09/14 08:06:18;;;;;;;7.30;3.70;;;;;;;18.01;80.24;100573.73;133709;1304;23056;-78
2023/09/14 08:09:19;;;;;;;6.20;3.30;;;;;;;18.10;79.89;100573.41;133705;1301;22780;-79
2023/09/14 08:12:20;;;;;;;;;;;;;;;18.21;79.91;100575.83;133822;1301;22461;-78
2023/09/14 08:15:29;;;;;;;6.20;3.70;;;;;;;18.48;80.19;100577.27;133840;1304;22250;-79
2023/09/14 08:18:32;;;;;;;6.80;3.10;;;;;;;18.85;79.89;100576.23;133931;1306;22401;-78
2023/09/14 08:21:35;;;;;;;6.40;3.60;;;;;;;19.11;78.72;100581.63;133976;1302;23199;-79
2023/09/14 08:24:36;;;;;;;8.20;3.90;;;;;;;19.20;77.29;100583.01;133989;1301;22481;-79
2023/09/14 08:27:40;;;;;;;6.40;3.90;;;;;;;19.26;77.13;100589.77;133989;1299;22457;-76
2023/09/14 08:30:41;;;;;;;6.20;3.70;;;;;;;19.44;76.96;100591.55;133966;1305;22354;-77
2023/09/14 08:33:42;;;;;;;6.00;3.40;;;;;;;19.62;76.49;100593.69;133991;1300;22455;-77
2023/09/14 08:36:43;;;;;;;7.70;4.30;;;;;;;19.76;75.73;100592.93;133990;1299;22218;-76
2023/09/14 08:39:50;;;;;;;6.20;3.70;;;;;;;19.83;75.47;100595.51;133757;1295;23018;-76
2023/09/14 08:42:52;;;;;;;6.50;3.40;;;;;;;19.94;75.02;100602.19;133968;1299;22371;-82
2023/09/14 08:45:55;;;;;;;8.10;3.40;;;;;;;20.04;74.28;100603.61;133970;1299;22414;-83
2023/09/14 08:48:58;;;;;;;6.80;3.50;;;;;;;20.03;73.13;100605.16;133981;1306;22517;-81
2023/09/14 08:52:01;;;;;;;4.10;2.90;;;;;;;20.00;72.95;100613.88;133963;1301;22476;-79
2023/09/14 08:55:02;;;;;;;6.30;3.40;;;;;;;19.98;72.07;100611.77;133943;1301;22478;-78
2023/09/14 08:58:07;;;;;;;5.80;3.30;;;;;;;19.78;71.08;100608.70;133941;1301;22433;-79
2023/09/14 09:01:11;;;;;;;6.40;3.30;;;;;;;19.72;71.87;100609.19;133987;1300;22549;-78
2023/09/14 09:04:11;;;;;;;8.40;3.20;;;;;;;20.04;72.52;100612.89;133928;1301;22430;-78
2023/09/14 09:07:15;;;;;;;5.90;3.20;;;;;;;20.22;71.75;100618.20;133955;1299;22567;-78
2023/09/14 09:10:22;;;;;;;5.70;3.00;;;;;;;20.31;71.63;100619.50;133954;1299;22423;-79
2023/09/14 09:13:32;;;;;;;4.80;3.20;;;;;;;20.39;71.47;100616.75;133933;1299;22437;-78
2023/09/14 09:16:41;;;;;;;5.50;3.30;;;;;;;20.36;70.18;100621.34;133515;1299;22448;-81
2023/09/14 09:19:51;;;;;;;6.30;3.30;;;;;;;20.29;69.69;100623.21;133956;1299;22340;-79
2023/09/14 09:23:01;;;;;;;9.40;4.10;;;;;;;20.17;69.58;100620.98;133771;1301;22563;-79
2023/09/14 09:26:02;;;;;;;6.60;4.00;;;;;;;20.02;69.44;100620.29;133900;1301;23313;-79
2023/09/14 09:29:14;;;;;;;9.10;3.70;;;;;;;19.86;69.50;100619.09;133860;1299;22532;-78
2023/09/14 09:32:20;;;;;;;8.20;3.90;;;;;;;19.85;69.56;100618.86;133867;1299;23320;-79
2023/09/14 09:35:26;;;;;;;5.40;3.70;;;;;;;19.87;69.48;100618.92;133851;1299;22958;-79
2023/09/14 09:38:28;;;;;;;6.50;3.40;;;;;;;20.00;69.66;100619.46;133844;1300;22371;-79
2023/09/14 09:41:32;;;;;;;8.70;4.00;;;;;;;20.20;69.43;100620.37;133867;1299;22475;-80
2023/09/14 09:44:37;;;;;;;6.50;3.80;;;;;;;20.33;68.85;100618.16;133920;1301;23258;-79
2023/09/14 09:47:38;;;;;;;7.40;3.60;;;;;;;20.68;69.13;100613.17;133927;1299;22410;-79
2023/09/14 09:50:39;;;;;;;5.50;3.40;;;;;;;21.22;68.93;100613.91;133965;1300;22272;-79
2023/09/14 09:54:02;;;;;;;12.80;3.60;;;;;;;21.63;67.19;100610.25;133975;1299;22369;-80
2023/09/14 09:57:04;;;;;;;6.00;3.10;;;;;;;21.41;65.39;100610.91;133967;1299;23278;-79
2023/09/14 10:00:14;;;;;;;6.70;4.00;;;;;;;20.94;65.13;100611.28;133987;1299;22497;-77
2023/09/14 10:03:23;;;;;;;7.90;3.50;;;;;;;20.73;65.96;100614.67;133934;1300;22373;-74
2023/09/14 10:06:26;;;;;;;8.70;3.70;;;;;;;20.63;66.01;100612.05;133962;1299;22366;-75
2023/09/14 10:09:34;;;;;;;6.60;3.50;;;;;;;20.49;65.74;100611.58;133888;1299;22371;-74
2023/09/14 10:12:39;;;;;;;5.30;3.30;;;;;;;20.33;65.56;100610.09;133913;1301;22681;-74
2023/09/14 10:15:39;;;;;;;6.80;3.10;;;;;;;20.52;66.33;100602.43;133919;1299;22357;-76
2023/09/14 10:18:41;;;;;;;6.30;3.50;;;;;;;20.92;65.28;100607.36;133914;1301;22429;-74
2023/09/14 10:21:46;;;;;;;9.50;3.80;;;;;;;20.86;64.64;100614.13;133939;1299;22262;-76
2023/09/14 10:24:53;;;;;;;5.60;3.20;;;;;;;20.68;64.58;100615.63;133943;1299;22279;-75
2023/09/14 10:27:56;;;;;;;5.30;3.70;;;;;;;20.51;64.93;100621.30;133940;1299;22359;-75
2023/09/14 10:31:00;;;;;;;6.30;3.40;;;;;;;20.40;64.79;100620.89;133960;1299;22518;-75
2023/09/14 10:34:02;;;;;;;5.60;3.50;;;;;;;20.24;64.45;100622.91;133992;1301;23327;-75
2023/09/14 10:37:03;;;;;;;5.30;3.20;;;;;;;20.05;64.74;100622.75;133974;1301;22489;-74
2023/09/14 10:40:06;;;;;;;6.20;3.40;;;;;;;20.00;64.67;100623.77;133986;1306;22402;-75
2023/09/14 10:43:07;;;;;;;8.30;4.40;;;;;;;19.90;64.33;100622.63;133980;1301;22424;-75
2023/09/14 10:46:16;;;;;;;7.00;3.40;;;;;;;19.88;64.78;100626.21;134000;1300;23583;-75
2023/09/14 10:49:19;;;;;;;7.30;3.40;;;;;;;19.89;65.08;100629.19;133971;1301;23357;-75
2023/09/14 10:52:26;;;;;;;5.70;3.20;;;;;;;19.91;65.28;100630.01;133659;1306;22401;-76
2023/09/14 10:55:27;;;;;;;10.10;3.50;;;;;;;19.97;65.33;100632.41;133579;1299;22845;-77
2023/09/14 10:58:54;;;;;;;8.10;4.00;;;;;;;20.00;64.64;100631.86;133957;1301;22259;-74
2023/09/14 11:01:54;;;;;;;8.10;3.80;;;;;;;19.94;64.11;100630.32;133894;1299;22342;-74
2023/09/14 11:05:14;;;;;;;7.10;3.90;;;;;;;19.88;64.18;100634.00;133957;1301;22460;-77
2023/09/14 11:08:16;;;;;;;7.90;3.30;;;;;;;19.91;64.57;100634.23;133959;1300;22415;-75
2023/09/14 11:11:43;;;;;;;7.10;3.70;;;;;;;20.01;65.03;100635.34;133949;1299;22363;-75
2023/09/14 11:15:10;;;;;;;4.80;3.10;;;;;;;20.13;64.81;100636.45;133970;1299;22313;-74
2023/09/14 11:18:16;;;;;;;4.80;3.00;;;;;;;20.10;64.00;100634.48;133876;1299;23671;-74
2023/09/14 11:21:32;;;;;;;7.80;3.40;;;;;;;20.05;64.03;100635.02;133950;1299;23359;-76
2023/09/14 11:24:34;;;;;;;5.00;3.10;;;;;;;20.12;64.07;100635.35;133952;1299;22442;-75
2023/09/14 11:27:35;;;;;;;6.30;3.00;;;;;;;20.30;63.98;100630.91;133955;1299;22430;-74
2023/09/14 11:30:44;;;;;;;6.60;3.60;;;;;;;20.47;63.61;100633.98;133914;1299;22195;-75
2023/09/14 11:33:44;;;;;;;6.80;2.90;;;;;;;20.55;63.32;100634.94;133909;1299;22967;-75
2023/09/14 11:36:45;;;;;;;6.60;3.50;;;;;;;20.55;63.05;100637.56;133684;1299;22538;-76
2023/09/14 11:39:55;;;;;;;4.20;2.60;;;;;;;20.54;63.24;100637.23;133935;1301;23088;-76
2023/09/14 11:43:20;;;;;;;9.50;3.30;;;;;;;20.50;62.91;100632.21;133939;1299;22459;-76
2023/09/14 11:46:23;;;;;;;4.70;2.60;;;;;;;20.44;62.84;100639.77;133929;1299;23379;-75
2023/09/14 11:49:28;;;;;;;5.50;2.50;;;;;;;20.44;62.64;100641.23;133954;1289;23349;-76
2023/09/14 11:52:31;;;;;;;3.70;2.50;;;;;;;20.50;62.63;100641.64;133945;1299;22951;-75
2023/09/14 11:55:31;;;;;;;4.70;2.50;;;;;;;20.75;62.76;100638.05;133909;1301;22588;-76
2023/09/14 11:58:36;;;;;;;8.40;2.80;;;;;;;21.16;63.16;100640.11;133981;1299;24797;-75
2023/09/14 12:01:37;;;;;;;5.30;3.20;;;;;;;21.50;62.35;100636.92;133934;1301;22450;-75
2023/09/14 12:04:39;;;;;;;7.00;2.80;;;;;;;21.73;61.47;100636.61;133905;1299;22566;-75
2023/09/14 12:07:40;;;;;;;5.30;3.00;;;;;;;21.98;61.34;100637.92;133979;1302;22442;-75
2023/09/14 12:10:42;;;;;;;4.60;2.70;;;;;;;22.17;60.61;100640.83;133869;1301;22544;-75
2023/09/14 12:13:53;;;;;;;6.50;3.00;;;;;;;22.31;60.37;100645.05;133916;1299;23106;-76
2023/09/14 12:16:54;;;;;;;6.10;3.00;;;;;;;22.45;59.83;100641.08;133917;1301;22420;-74
2023/09/14 12:19:57;;;;;;;7.30;2.70;;;;;;;22.57;59.22;100645.92;133937;1300;22408;-75
2023/09/14 12:23:02;;;;;;;4.10;2.70;;;;;;;22.56;58.12;100643.40;133921;1302;23627;-75
2023/09/14 12:26:03;;;;;;;6.60;3.10;;;;;;;22.41;58.30;100647.14;133950;1301;22195;-75
2023/09/14 12:29:03;;;;;;;6.10;3.00;;;;;;;22.46;58.27;100646.19;133932;1295;22421;-77
2023/09/14 12:32:05;;;;;;;8.80;2.70;;;;;;;22.50;57.51;100644.12;133958;1301;22372;-76
2023/09/14 12:35:06;;;;;;;6.40;3.30;;;;;;;22.52;57.88;100647.02;133966;1295;22917;-76
2023/09/14 12:38:07;;;;;;;4.10;3.00;;;;;;;22.49;57.69;100651.98;133919;1301;22400;-76
2023/09/14 12:41:08;;;;;;;13.90;3.20;;;;;;;22.33;57.51;100655.14;133920;1301;22391;-76
2023/09/14 12:44:11;;;;;;;5.60;2.90;;;;;;;22.16;56.89;100654.89;133939;1301;22345;-76
2023/09/14 12:47:12;;;;;;;5.20;3.00;;;;;;;21.82;56.77;100660.12;133898;1299;22419;-75
2023/09/14 12:50:16;;;;;;;8.40;3.00;;;;;;;21.53;57.14;100659.73;133929;1299;22574;-75
2023/09/14 12:53:17;;;;;;;3.30;3.00;;;;;;;21.35;57.72;100663.16;133926;1301;22524;-75
2023/09/14 12:56:20;;;;;;;5.70;3.10;;;;;;;21.24;57.79;100659.70;133937;1301;23692;-75
2023/09/14 12:59:21;;;;;;;3.40;3.00;;;;;;;21.13;57.91;100657.20;133941;1302;22515;-75
2023/09/14 13:02:22;;;;;;;4.80;3.10;;;;;;;21.09;58.23;100657.32;133905;1302;22373;-75
2023/09/14 13:05:24;;;;;;;5.00;3.50;;;;;;;21.02;58.24;100657.18;133949;1300;22410;-75
2023/09/14 13:08:25;;;;;;;6.20;4.00;;;;;;;20.87;58.45;100655.86;133928;1299;22377;-75
2023/09/14 13:11:32;;;;;;;8.70;4.20;;;;;;;20.82;59.00;100657.48;133861;1299;23848;-76
2023/09/14 13:14:34;;;;;;;9.00;3.20;;;;;;;20.84;59.02;100660.08;133904;1301;22426;-75
2023/09/14 13:17:35;;;;;;;10.30;3.80;;;;;;;20.79;59.02;100665.81;133928;1302;22387;-75
2023/09/14 13:20:47;;;;;;;4.00;3.10;;;;;;;20.74;59.07;100665.31;133944;1299;22575;-75
2023/09/14 13:23:52;;;;;;;7.70;3.60;;;;;;;20.65;59.18;100662.86;133955;1299;23154;-75
2023/09/14 13:26:52;;;;;;;5.80;3.50;;;;;;;20.55;59.39;100664.21;133925;1300;22283;-75
2023/09/14 13:29:53;;;;;;;3.90;3.30;;;;;;;20.50;59.35;100661.45;133966;1300;23252;-75
2023/09/14 13:32:55;;;;;;;5.80;3.60;;;;;;;20.48;59.77;100659.52;133919;1299;22381;-76
2023/09/14 13:36:00;;;;;;;6.70;3.50;;;;;;;20.58;59.95;100660.30;133751;1301;22444;-75
2023/09/14 13:39:01;;;;;;;5.50;3.80;;;;;;;20.70;59.83;100657.56;133912;1301;22205;-75
2023/09/14 13:42:02;;;;;;;5.10;3.10;;;;;;;20.75;59.66;100654.45;133917;1301;22283;-75
2023/09/14 13:45:04;;;;;;;6.50;3.30;;;;;;;20.71;59.68;100657.34;133875;1299;22853;-75
2023/09/14 13:48:05;;;;;;;4.60;3.50;;;;;;;20.65;59.56;100661.08;133871;1299;22413;-75
2023/09/14 13:51:07;;;;;;;9.00;3.40;;;;;;;20.45;59.50;100661.25;133863;1299;22402;-75
2023/09/14 13:54:09;;;;;;;6.80;3.80;;;;;;;20.33;59.89;100662.41;133888;1299;22393;-75
2023/09/14 13:57:11;;;;;;;6.50;3.90;;;;;;;20.25;60.40;100660.09;133907;1299;22249;-76
2023/09/14 14:00:14;;;;;;;9.10;4.00;;;;;;;20.17;60.45;100656.95;133904;1300;23507;-76
2023/09/14 14:03:15;;;;;;;5.30;3.50;;;;;;;20.11;60.62;100653.77;133898;1300;22434;-75
2023/09/14 14:06:15;;;;;;;6.30;3.60;;;;;;;20.10;60.78;100648.83;133910;1304;22495;-76
2023/09/14 14:09:17;;;;;;;5.30;3.70;;;;;;;20.09;60.95;100648.67;133908;1299;22450;-75